createdAt,value
2023-04-01T00:01:17.463Z,8.57
2023-04-01T00:03:44.382Z,8.59
2023-04-01T00:06:14.431Z,8.59
2023-04-01T00:08:41.013Z,8.57
2023-04-01T00:11:07.476Z,8.61
2023-04-01T00:13:33.979Z,8.69
2023-04-01T00:16:00.550Z,8.58
2023-04-01T00:18:27.837Z,8.56
2023-04-01T00:20:54.404Z,8.50
2023-04-01T00:23:22.205Z,8.47
2023-04-01T00:25:50.375Z,8.40
2023-04-01T00:28:18.997Z,8.32
2023-04-01T00:30:45.691Z,8.23
2023-04-01T00:33:12.382Z,8.20
2023-04-01T00:35:39.353Z,8.11
2023-04-01T00:38:07.086Z,8.07
2023-04-01T00:40:35.437Z,8.11
2023-04-01T00:43:02.918Z,8.04
2023-04-01T00:45:37.294Z,8.08
2023-04-01T00:48:18.099Z,8.08
2023-04-01T00:50:53.107Z,8.10
2023-04-01T00:53:21.321Z,8.20
2023-04-01T00:56:02.268Z,8.16
2023-04-01T00:58:32.058Z,8.16
2023-04-01T01:01:00.985Z,8.15
2023-04-01T01:03:28.391Z,8.12
2023-04-01T01:06:24.178Z,8.14
2023-04-01T01:09:32.541Z,8.07
2023-04-01T01:12:14.196Z,8.12
2023-04-01T01:14:56.159Z,8.06
2023-04-01T01:17:52.542Z,8.09
2023-04-01T01:20:52.251Z,8.11
2023-04-01T01:23:42.456Z,8.03
2023-04-01T01:26:35.443Z,8.01
2023-04-01T01:29:23.756Z,8.00
2023-04-01T01:32:17.434Z,8.02
2023-04-01T01:34:57.826Z,8.06
2023-04-01T01:37:27.520Z,8.12
2023-04-01T01:39:59.356Z,8.11
2023-04-01T01:42:27.917Z,8.05
2023-04-01T01:44:56.271Z,8.14
2023-04-01T01:47:24.368Z,8.16
2023-04-01T01:49:52.480Z,8.13
2023-04-01T01:52:19.335Z,8.13
2023-04-01T01:54:53.516Z,8.15
2023-04-01T01:57:31.321Z,8.26
2023-04-01T02:00:04.435Z,8.19
2023-04-01T02:02:33.017Z,8.13
2023-04-01T02:04:59.878Z,8.07
2023-04-01T02:07:31.697Z,8.08
2023-04-01T02:09:58.212Z,8.02
2023-04-01T02:12:25.910Z,8.01
2023-04-01T02:15:01.595Z,8.01
2023-04-01T02:17:32.253Z,7.96
2023-04-01T02:20:05.428Z,7.89
2023-04-01T02:22:40.289Z,7.86
2023-04-01T02:25:13.221Z,7.92
2023-04-01T02:27:41.082Z,7.81
2023-04-01T02:30:08.431Z,7.79
2023-04-01T02:32:38.967Z,7.84
2023-04-01T02:35:11.451Z,7.81
2023-04-01T02:37:40.378Z,7.74
2023-04-01T02:40:09.020Z,7.71
2023-04-01T02:42:35.656Z,7.73
2023-04-01T02:45:02.490Z,7.77
2023-04-01T02:47:28.987Z,7.73
2023-04-01T02:49:58.851Z,7.72
2023-04-01T02:52:30.072Z,7.76
2023-04-01T02:54:57.241Z,7.68
2023-04-01T02:57:24.386Z,7.70
2023-04-01T02:59:50.874Z,7.65
2023-04-01T03:02:18.537Z,7.66
2023-04-01T03:04:45.232Z,7.65
2023-04-01T03:07:11.776Z,7.65
2023-04-01T03:09:39.097Z,7.64
2023-04-01T03:12:06.516Z,7.59
2023-04-01T03:14:32.964Z,7.53
2023-04-01T03:16:59.478Z,7.53
2023-04-01T03:19:25.973Z,7.52
2023-04-01T03:21:52.395Z,7.51
2023-04-01T03:24:18.832Z,7.57
2023-04-01T03:26:45.348Z,7.57
2023-04-01T03:29:11.757Z,7.58
2023-04-01T03:31:38.181Z,7.51
2023-04-01T03:34:04.661Z,7.46
2023-04-01T03:36:31.360Z,7.50
2023-04-01T03:38:57.765Z,7.45
2023-04-01T03:41:24.210Z,7.44
2023-04-01T03:43:50.662Z,7.46
2023-04-01T03:46:21.269Z,7.45
2023-04-01T03:48:48.141Z,7.46
2023-04-01T03:51:15.238Z,7.43
2023-04-01T03:53:41.764Z,7.43
2023-04-01T03:56:09.289Z,7.41
2023-04-01T03:58:39.909Z,7.44
2023-04-01T04:01:21.869Z,7.47
2023-04-01T04:03:50.584Z,7.50
2023-04-01T04:06:19.240Z,7.48
2023-04-01T04:08:45.775Z,7.45
2023-04-01T04:11:12.308Z,7.46
2023-04-01T04:13:38.778Z,7.44
2023-04-01T04:16:05.804Z,7.48
2023-04-01T04:18:32.230Z,7.51
2023-04-01T04:20:58.681Z,7.43
2023-04-01T04:23:25.343Z,7.45
2023-04-01T04:26:13.300Z,7.43
2023-04-01T04:28:40.344Z,7.47
2023-04-01T04:31:08.634Z,7.41
2023-04-01T04:33:35.466Z,7.43
2023-04-01T04:36:02.634Z,7.39
2023-04-01T04:38:29.580Z,7.40
2023-04-01T04:40:56.628Z,7.39
2023-04-01T04:43:23.429Z,7.39
2023-04-01T04:45:49.830Z,7.45
2023-04-01T04:48:19.701Z,7.34
2023-04-01T04:50:48.570Z,7.37
2023-04-01T04:53:16.547Z,7.33
2023-04-01T04:55:50.253Z,7.25
2023-04-01T04:58:17.504Z,7.24
2023-04-01T05:00:44.403Z,7.22
2023-04-01T05:03:12.346Z,7.28
2023-04-01T05:05:39.869Z,7.28
2023-04-01T05:08:07.335Z,7.31
2023-04-01T05:10:33.772Z,7.35
2023-04-01T05:13:00.302Z,7.35
2023-04-01T05:15:26.795Z,7.27
2023-04-01T05:17:53.223Z,7.28
2023-04-01T05:20:19.847Z,7.33
2023-04-01T05:22:46.346Z,7.32
2023-04-01T05:25:12.777Z,7.34
2023-04-01T05:27:39.151Z,7.36
2023-04-01T05:30:06.743Z,7.37
2023-04-01T05:32:33.185Z,7.38
2023-04-01T05:34:59.566Z,7.38
2023-04-01T05:37:26.051Z,7.45
2023-04-01T05:39:52.446Z,7.43
2023-04-01T05:42:18.909Z,7.43
2023-04-01T05:44:45.407Z,7.42
2023-04-01T05:47:11.970Z,7.38
2023-04-01T05:49:38.489Z,7.33
2023-04-01T05:52:04.952Z,7.36
2023-04-01T05:54:31.487Z,7.39
2023-04-01T05:56:57.894Z,7.42
2023-04-01T05:59:24.516Z,7.42
2023-04-01T06:01:51.493Z,7.40
2023-04-01T06:04:19.234Z,7.38
2023-04-01T06:06:46.126Z,7.37
2023-04-01T06:09:18.756Z,7.42
2023-04-01T06:12:22.239Z,7.49
2023-04-01T06:15:03.196Z,7.60
2023-04-01T06:18:11.463Z,7.55
2023-04-01T06:20:59.811Z,7.56
2023-04-01T06:23:48.055Z,7.59
2023-04-01T06:26:17.374Z,7.57
2023-04-01T06:29:15.839Z,7.65
2023-04-01T06:32:21.648Z,7.70
2023-04-01T06:35:22.107Z,7.65
2023-04-01T06:38:10.370Z,7.63
2023-04-01T06:40:48.288Z,7.69
2023-04-01T06:43:23.291Z,7.72
2023-04-01T06:45:59.497Z,7.75
2023-04-01T06:48:38.223Z,7.77
2023-04-01T06:51:21.052Z,7.82
2023-04-01T06:54:10.254Z,7.93
2023-04-01T06:56:41.378Z,7.88
2023-04-01T06:59:16.542Z,7.84
2023-04-01T07:01:48.981Z,7.85
2023-04-01T07:04:24.385Z,7.86
2023-04-01T07:07:01.261Z,8.04
2023-04-01T07:09:35.621Z,7.97
2023-04-01T07:12:11.692Z,7.79
2023-04-01T07:14:42.553Z,7.97
2023-04-01T07:17:23.226Z,7.96
2023-04-01T07:19:58.341Z,8.32
2023-04-01T07:22:46.520Z,8.15
2023-04-01T07:25:15.176Z,8.27
2023-04-01T07:27:43.198Z,8.44
2023-04-01T07:30:15.652Z,8.55
2023-04-01T07:32:48.699Z,8.33
2023-04-01T07:35:31.353Z,8.58
2023-04-01T07:38:14.948Z,8.81
2023-04-01T07:40:57.431Z,8.77
2023-04-01T07:43:48.644Z,8.93
2023-04-01T07:46:36.139Z,9.09
2023-04-01T07:49:13.859Z,9.56
2023-04-01T07:51:52.538Z,9.84
2023-04-01T07:54:42.818Z,9.57
2023-04-01T07:57:24.551Z,9.49
2023-04-01T08:00:00.160Z,9.66
2023-04-01T08:03:05.851Z,9.25
2023-04-01T08:05:43.454Z,9.05
2023-04-01T08:08:48.233Z,8.78
2023-04-01T08:11:53.618Z,8.83
2023-04-01T08:14:37.008Z,8.70
2023-04-01T08:17:08.867Z,8.77
2023-04-01T08:19:49.714Z,9.05
2023-04-01T08:22:28.411Z,9.19
2023-04-01T08:25:00.839Z,9.16
2023-04-01T08:27:36.442Z,9.48
2023-04-01T08:30:26.485Z,9.32
2023-04-01T08:33:00.985Z,9.46
2023-04-01T08:35:36.927Z,9.63
2023-04-01T08:38:46.583Z,9.81
2023-04-01T08:41:51.433Z,9.32
2023-04-01T08:44:45.941Z,9.35
2023-04-01T08:47:34.092Z,9.41
2023-04-01T08:50:07.258Z,9.21
2023-04-01T08:52:42.284Z,9.14
2023-04-01T08:55:23.700Z,9.09
2023-04-01T08:57:59.009Z,9.28
2023-04-01T09:00:32.794Z,9.42
2023-04-01T09:03:34.551Z,9.37
2023-04-01T09:06:12.978Z,9.86
2023-04-01T09:09:03.442Z,9.81
2023-04-01T09:11:54.821Z,10.44
2023-04-01T09:14:33.436Z,10.39
2023-04-01T09:17:13.382Z,10.05
2023-04-01T09:19:51.864Z,10.33
2023-04-01T09:22:33.997Z,10.83
2023-04-01T09:25:00.498Z,10.15
2023-04-01T09:27:44.827Z,10.67
2023-04-01T09:30:35.803Z,10.68
2023-04-01T09:33:02.283Z,10.60
2023-04-01T09:35:49.359Z,10.19
2023-04-01T09:38:18.590Z,10.24
2023-04-01T09:40:48.134Z,10.46
2023-04-01T09:43:46.584Z,10.67
2023-04-01T09:46:38.056Z,10.86
2023-04-01T09:49:49.354Z,10.79
2023-04-01T09:52:36.077Z,10.69
2023-04-01T09:55:21.374Z,11.27
2023-04-01T09:58:02.802Z,10.59
2023-04-01T10:00:48.080Z,10.81
2023-04-01T10:04:01.098Z,10.96
2023-04-01T10:07:05.234Z,10.35
2023-04-01T10:10:09.401Z,10.63
2023-04-01T10:13:18.564Z,10.85
2023-04-01T10:16:11.692Z,11.09
2023-04-01T10:19:05.152Z,11.11
2023-04-01T10:22:12.774Z,11.02
2023-04-01T10:24:59.489Z,10.70
2023-04-01T10:27:38.050Z,10.88
2023-04-01T10:30:24.329Z,11.22
2023-04-01T10:33:08.914Z,11.20
2023-04-01T10:35:54.320Z,10.84
2023-04-01T10:38:44.095Z,10.89
2023-04-01T10:41:33.470Z,11.04
2023-04-01T10:44:15.058Z,10.56
2023-04-01T10:47:17.910Z,10.56
2023-04-01T10:50:17.897Z,10.49
2023-04-01T10:53:10.908Z,10.52
2023-04-01T10:55:46.356Z,10.27
2023-04-01T10:58:31.456Z,10.22
2023-04-01T11:01:16.527Z,10.06
2023-04-01T11:04:01.866Z,10.11
2023-04-01T11:07:16.551Z,10.07
2023-04-01T11:10:01.594Z,10.28
2023-04-01T11:12:37.275Z,10.16
2023-04-01T11:15:20.771Z,10.52
2023-04-01T11:18:19.693Z,10.44
2023-04-01T11:20:52.049Z,10.32
2023-04-01T11:23:45.544Z,10.42
2023-04-01T11:26:41.529Z,10.42
2023-04-01T11:29:11.016Z,10.74
2023-04-01T11:31:40.252Z,10.87
2023-04-01T11:34:32.024Z,11.33
2023-04-01T11:37:10.721Z,11.39
2023-04-01T11:40:10.856Z,11.27
2023-04-01T11:43:19.993Z,11.45
2023-04-01T11:46:20.829Z,11.18
2023-04-01T11:48:58.183Z,10.88
2023-04-01T11:52:03.812Z,10.92
2023-04-01T11:54:48.417Z,10.71
2023-04-01T11:57:30.018Z,10.74
2023-04-01T12:00:32.021Z,10.67
2023-04-01T12:03:29.505Z,10.13
2023-04-01T12:06:05.931Z,10.43
2023-04-01T12:08:43.034Z,10.28
2023-04-01T12:11:34.187Z,10.30
2023-04-01T12:14:14.993Z,10.28
2023-04-01T12:16:52.511Z,10.62
2023-04-01T12:19:30.498Z,10.73
2023-04-01T12:22:38.174Z,10.62
2023-04-01T12:25:35.569Z,11.27
2023-04-01T12:28:15.495Z,11.92
2023-04-01T12:30:59.735Z,12.45
2023-04-01T12:33:56.081Z,12.17
2023-04-01T12:36:28.568Z,12.07
2023-04-01T12:39:13.844Z,12.67
2023-04-01T12:42:05.952Z,12.92
2023-04-01T12:45:02.159Z,12.76
2023-04-01T12:47:47.549Z,13.26
2023-04-01T12:50:16.968Z,13.60
2023-04-01T12:53:04.218Z,12.41
2023-04-01T12:55:39.467Z,12.52
2023-04-01T12:58:33.344Z,12.08
2023-04-01T13:01:18.337Z,11.66
2023-04-01T13:04:03.113Z,12.00
2023-04-01T13:06:39.860Z,12.67
2023-04-01T13:09:31.244Z,12.76
2023-04-01T13:11:57.741Z,12.48
2023-04-01T13:14:56.988Z,12.54
2023-04-01T13:17:55.865Z,12.29
2023-04-01T13:20:37.844Z,12.51
2023-04-01T13:23:22.989Z,12.47
2023-04-01T13:26:14.329Z,12.61
2023-04-01T13:28:57.973Z,12.23
2023-04-01T13:31:30.501Z,12.73
2023-04-01T13:34:24.917Z,12.33
2023-04-01T13:36:57.343Z,12.40
2023-04-01T13:39:42.795Z,12.48
2023-04-01T13:42:28.116Z,12.53
2023-04-01T13:45:05.529Z,12.39
2023-04-01T13:48:00.531Z,13.04
2023-04-01T13:50:48.409Z,13.95
2023-04-01T13:53:36.578Z,15.18
2023-04-01T13:56:10.835Z,15.93
2023-04-01T13:58:59.312Z,16.28
2023-04-01T14:01:25.961Z,15.96
2023-04-01T14:04:37.653Z,14.90
2023-04-01T14:07:31.427Z,14.28
2023-04-01T14:10:11.564Z,14.07
2023-04-01T14:13:01.882Z,13.56
2023-04-01T14:15:49.534Z,13.49
2023-04-01T14:18:31.107Z,13.73
2023-04-01T14:21:15.358Z,13.19
2023-04-01T14:24:21.898Z,14.49
2023-04-01T14:27:12.664Z,14.30
2023-04-01T14:30:14.482Z,15.23
2023-04-01T14:33:06.480Z,17.54
2023-04-01T14:35:52.112Z,18.15
2023-04-01T14:38:31.582Z,18.48
2023-04-01T14:41:10.315Z,18.20
2023-04-01T14:43:53.384Z,16.90
2023-04-01T14:46:28.663Z,17.34
2023-04-01T14:49:00.713Z,17.85
2023-04-01T14:51:39.075Z,18.92
2023-04-01T14:54:11.553Z,20.13
2023-04-01T14:56:48.104Z,18.62
2023-04-01T14:59:23.860Z,16.11
2023-04-01T15:02:32.511Z,14.24
2023-04-01T15:05:37.370Z,13.61
2023-04-01T15:08:12.175Z,13.18
2023-04-01T15:10:47.724Z,14.66
2023-04-01T15:13:35.428Z,14.33
2023-04-01T15:16:46.995Z,14.21
2023-04-01T15:19:55.282Z,13.60
2023-04-01T15:22:38.872Z,14.31
2023-04-01T15:25:32.268Z,13.74
2023-04-01T15:28:23.747Z,14.05
2023-04-01T15:31:05.026Z,14.08
2023-04-01T15:34:10.204Z,13.59
2023-04-01T15:36:45.675Z,13.24
2023-04-01T15:39:18.582Z,12.96
2023-04-01T15:41:47.989Z,12.54
2023-04-01T15:44:43.161Z,12.24
2023-04-01T15:47:34.631Z,12.03
2023-04-01T15:50:34.354Z,12.15
2023-04-01T15:53:22.447Z,11.87
2023-04-01T15:56:20.490Z,11.86
2023-04-01T15:59:13.040Z,11.80
2023-04-01T16:01:52.440Z,11.57
2023-04-01T16:04:55.993Z,11.66
2023-04-01T16:07:37.485Z,11.66
2023-04-01T16:10:41.555Z,11.33
2023-04-01T16:13:26.245Z,11.32
2023-04-01T16:16:11.081Z,10.62
2023-04-01T16:18:52.742Z,10.35
2023-04-01T16:21:22.138Z,10.36
2023-04-01T16:23:59.044Z,10.33
2023-04-01T16:26:55.169Z,10.18
2023-04-01T16:29:39.979Z,10.13
2023-04-01T16:32:24.442Z,9.74
2023-04-01T16:35:28.943Z,9.53
2023-04-01T16:38:17.676Z,9.39
2023-04-01T16:41:13.036Z,9.35
2023-04-01T16:43:47.397Z,9.19
2023-04-01T16:46:36.713Z,8.99
2023-04-01T16:49:12.333Z,8.94
2023-04-01T16:51:49.283Z,9.46
2023-04-01T16:54:22.011Z,9.47
2023-04-01T16:56:56.476Z,9.56
2023-04-01T16:59:30.430Z,9.47
2023-04-01T17:02:11.625Z,9.69
2023-04-01T17:04:50.147Z,9.80
2023-04-01T17:07:41.473Z,9.78
2023-04-01T17:10:16.835Z,10.18
2023-04-01T17:12:55.335Z,10.11
2023-04-01T17:15:41.186Z,10.37
2023-04-01T17:18:37.889Z,10.41
2023-04-01T17:21:20.075Z,10.30
2023-04-01T17:23:52.308Z,10.18
2023-04-01T17:26:47.004Z,10.28
2023-04-01T17:29:16.534Z,10.44
2023-04-01T17:31:58.939Z,10.34
2023-04-01T17:35:15.394Z,10.28
2023-04-01T17:37:59.935Z,10.40
2023-04-01T17:40:40.995Z,10.59
2023-04-01T17:43:22.869Z,10.58
2023-04-01T17:45:56.400Z,10.34
2023-04-01T17:48:34.343Z,10.44
2023-04-01T17:51:21.652Z,10.40
2023-04-01T17:53:57.122Z,10.41
2023-04-01T17:56:26.555Z,10.23
2023-04-01T17:59:06.665Z,10.29
2023-04-01T18:01:40.019Z,10.36
2023-04-01T18:04:16.121Z,10.44
2023-04-01T18:06:54.564Z,10.63
2023-04-01T18:09:29.496Z,10.73
2023-04-01T18:12:19.753Z,10.80
2023-04-01T18:14:59.159Z,10.60
2023-04-01T18:17:27.497Z,10.46
2023-04-01T18:20:09.586Z,9.67
2023-04-01T18:23:12.421Z,9.84
2023-04-01T18:25:42.098Z,9.68
2023-04-01T18:28:39.594Z,9.90
2023-04-01T18:31:12.060Z,9.81
2023-04-01T18:33:53.351Z,9.66
2023-04-01T18:36:39.949Z,9.67
2023-04-01T18:39:33.136Z,9.64
2023-04-01T18:42:36.341Z,9.62
2023-04-01T18:45:21.998Z,9.53
2023-04-01T18:48:23.977Z,9.29
2023-04-01T18:51:03.146Z,9.12
2023-04-01T18:53:35.580Z,8.85
2023-04-01T18:56:05.447Z,8.91
2023-04-01T18:58:36.335Z,8.83
2023-04-01T19:01:11.667Z,8.91
2023-04-01T19:04:01.015Z,8.88
2023-04-01T19:06:34.457Z,9.10
2023-04-01T19:09:31.759Z,9.07
2023-04-01T19:12:16.478Z,8.95
2023-04-01T19:15:07.327Z,9.26
2023-04-01T19:17:47.838Z,9.52
2023-04-01T19:20:42.072Z,9.53
2023-04-01T19:23:27.355Z,9.59
2023-04-01T19:26:00.809Z,9.67
2023-04-01T19:28:40.559Z,9.68
2023-04-01T19:31:38.980Z,9.77
2023-04-01T19:34:11.270Z,9.57
2023-04-01T19:36:54.421Z,9.20
2023-04-01T19:39:36.478Z,9.35
2023-04-01T19:42:37.444Z,9.24
2023-04-01T19:45:34.576Z,9.40
2023-04-01T19:48:04.264Z,9.50
2023-04-01T19:50:43.721Z,9.54
2023-04-01T19:53:19.007Z,9.36
2023-04-01T19:56:01.405Z,9.50
2023-04-01T19:58:34.002Z,9.46
2023-04-01T20:01:02.047Z,9.59
2023-04-01T20:03:55.246Z,9.39
2023-04-01T20:06:29.504Z,9.33
2023-04-01T20:09:06.114Z,9.20
2023-04-01T20:11:52.849Z,9.29
2023-04-01T20:14:51.992Z,9.28
2023-04-01T20:17:24.534Z,9.35
2023-04-01T20:20:20.394Z,9.47
2023-04-01T20:22:46.766Z,9.32
2023-04-01T20:25:18.399Z,9.36
2023-04-01T20:28:02.538Z,9.37
2023-04-01T20:30:38.126Z,9.31
2023-04-01T20:33:27.104Z,9.11
2023-04-01T20:36:37.091Z,9.04
2023-04-01T20:39:28.274Z,8.95
2023-04-01T20:42:13.472Z,9.13
2023-04-01T20:44:51.454Z,9.06
2023-04-01T20:48:06.113Z,9.11
2023-04-01T20:50:42.076Z,9.13
2023-04-01T20:53:33.163Z,9.12
2023-04-01T20:56:16.216Z,9.17
2023-04-01T20:59:08.848Z,9.22
2023-04-01T21:01:46.051Z,9.00
2023-04-01T21:04:34.619Z,9.09
2023-04-01T21:07:15.094Z,9.12
2023-04-01T21:09:44.543Z,9.29
2023-04-01T21:12:19.702Z,9.33
2023-04-01T21:15:01.286Z,9.22
2023-04-01T21:17:30.671Z,8.97
2023-04-01T21:20:19.756Z,8.85
2023-04-01T21:23:12.635Z,8.94
2023-04-01T21:25:57.883Z,8.88
2023-04-01T21:28:36.579Z,8.77
2023-04-01T21:31:14.061Z,8.55
2023-04-01T21:33:55.328Z,8.48
2023-04-01T21:36:59.682Z,8.65
2023-04-01T21:39:32.218Z,8.73
2023-04-01T21:42:29.835Z,8.68
2023-04-01T21:45:08.473Z,8.73
2023-04-01T21:48:12.367Z,8.74
2023-04-01T21:51:18.171Z,8.51
2023-04-01T21:54:20.184Z,8.51
2023-04-01T21:57:11.269Z,8.57
2023-04-01T22:00:13.595Z,8.57
2023-04-01T22:03:06.092Z,8.40
2023-04-01T22:06:04.402Z,8.45
2023-04-01T22:08:47.436Z,8.39
2023-04-01T22:11:45.955Z,8.32
2023-04-01T22:14:27.319Z,8.64
2023-04-01T22:17:04.746Z,8.61
2023-04-01T22:20:20.516Z,8.70
2023-04-01T22:23:00.545Z,8.75
2023-04-01T22:25:39.981Z,8.72
2023-04-01T22:28:17.523Z,8.74
2023-04-01T22:30:51.486Z,8.84
2023-04-01T22:33:44.201Z,8.83
2023-04-01T22:36:30.885Z,8.71
2023-04-01T22:39:06.941Z,8.79
2023-04-01T22:41:39.186Z,8.77
2023-04-01T22:44:15.750Z,8.64
2023-04-01T22:47:00.349Z,8.66
2023-04-01T22:49:39.969Z,8.39
2023-04-01T22:52:22.278Z,8.17
2023-04-01T22:54:55.523Z,7.97
2023-04-01T22:57:21.938Z,8.22
2023-04-01T23:00:02.006Z,8.31
2023-04-01T23:02:37.011Z,8.14
2023-04-01T23:05:06.276Z,8.34
2023-04-01T23:07:50.169Z,8.45
2023-04-01T23:10:21.183Z,8.22
2023-04-01T23:12:51.175Z,8.21
2023-04-01T23:15:18.372Z,8.33
2023-04-01T23:18:06.715Z,8.53
2023-04-01T23:20:59.620Z,8.58
2023-04-01T23:23:55.428Z,8.68
2023-04-01T23:26:35.358Z,8.78
2023-04-01T23:29:03.019Z,8.88
2023-04-01T23:31:37.245Z,8.92
2023-04-01T23:34:12.474Z,8.93
2023-04-01T23:36:51.002Z,8.99
2023-04-01T23:39:33.159Z,9.02
2023-04-01T23:42:16.215Z,9.02
2023-04-01T23:44:44.627Z,9.04
2023-04-01T23:47:19.860Z,9.08
2023-04-01T23:49:52.089Z,9.03
2023-04-01T23:52:24.503Z,9.02
2023-04-01T23:54:58.267Z,9.06
2023-04-01T23:57:31.272Z,9.03
